sensor_id;sensor_type;location;lat;lon;timestamp;P1;durP1;ratioP1;P2;durP2;ratioP2
74626;SDS011;63132;52.268;5.192;2023-02-28T00:00:16;6.28;;;3.10;;
74626;SDS011;63132;52.268;5.192;2023-02-28T00:02:42;8.30;;;2.05;;
74626;SDS011;63132;52.268;5.192;2023-02-28T00:05:09;5.70;;;1.90;;
74626;SDS011;63132;52.268;5.192;2023-02-28T00:07:36;5.25;;;1.80;;
74626;SDS011;63132;52.268;5.192;2023-02-28T00:10:02;6.85;;;2.15;;
74626;SDS011;63132;52.268;5.192;2023-02-28T00:12:29;6.25;;;1.85;;
74626;SDS011;63132;52.268;5.192;2023-02-28T00:14:54;2.70;;;1.67;;
74626;SDS011;63132;52.268;5.192;2023-02-28T00:17:20;6.30;;;1.80;;
74626;SDS011;63132;52.268;5.192;2023-02-28T00:19:49;4.55;;;1.90;;
74626;SDS011;63132;52.268;5.192;2023-02-28T00:22:16;4.85;;;2.03;;
74626;SDS011;63132;52.268;5.192;2023-02-28T00:24:42;6.78;;;1.92;;
74626;SDS011;63132;52.268;5.192;2023-02-28T00:27:08;7.80;;;2.20;;
74626;SDS011;63132;52.268;5.192;2023-02-28T00:29:33;3.90;;;1.65;;
74626;SDS011;63132;52.268;5.192;2023-02-28T00:31:59;7.30;;;2.40;;
74626;SDS011;63132;52.268;5.192;2023-02-28T00:34:25;4.85;;;1.70;;
74626;SDS011;63132;52.268;5.192;2023-02-28T00:36:50;6.32;;;3.58;;
74626;SDS011;63132;52.268;5.192;2023-02-28T00:39:16;9.68;;;2.20;;
74626;SDS011;63132;52.268;5.192;2023-02-28T00:41:41;9.65;;;1.90;;
74626;SDS011;63132;52.268;5.192;2023-02-28T00:44:07;5.25;;;2.05;;
74626;SDS011;63132;52.268;5.192;2023-02-28T00:46:32;6.47;;;2.00;;
74626;SDS011;63132;52.268;5.192;2023-02-28T00:48:58;4.53;;;2.28;;
74626;SDS011;63132;52.268;5.192;2023-02-28T00:51:23;8.55;;;2.55;;
74626;SDS011;63132;52.268;5.192;2023-02-28T00:53:49;4.73;;;2.33;;
74626;SDS011;63132;52.268;5.192;2023-02-28T00:56:14;6.78;;;2.60;;
74626;SDS011;63132;52.268;5.192;2023-02-28T00:58:40;5.03;;;2.13;;
74626;SDS011;63132;52.268;5.192;2023-02-28T01:01:05;9.77;;;1.83;;
74626;SDS011;63132;52.268;5.192;2023-02-28T01:03:31;9.32;;;3.17;;
74626;SDS011;63132;52.268;5.192;2023-02-28T01:05:57;5.45;;;1.73;;
74626;SDS011;63132;52.268;5.192;2023-02-28T01:08:22;7.03;;;2.28;;
74626;SDS011;63132;52.268;5.192;2023-02-28T01:10:48;6.63;;;2.08;;
74626;SDS011;63132;52.268;5.192;2023-02-28T01:13:14;6.65;;;2.00;;
74626;SDS011;63132;52.268;5.192;2023-02-28T01:15:41;6.45;;;2.00;;
74626;SDS011;63132;52.268;5.192;2023-02-28T01:18:14;8.15;;;2.17;;
74626;SDS011;63132;52.268;5.192;2023-02-28T01:20:39;4.83;;;2.10;;
74626;SDS011;63132;52.268;5.192;2023-02-28T01:23:05;9.30;;;2.40;;
74626;SDS011;63132;52.268;5.192;2023-02-28T01:25:30;5.83;;;2.37;;
74626;SDS011;63132;52.268;5.192;2023-02-28T01:27:56;7.85;;;2.40;;
74626;SDS011;63132;52.268;5.192;2023-02-28T01:30:21;8.45;;;3.10;;
74626;SDS011;63132;52.268;5.192;2023-02-28T01:32:46;4.00;;;1.83;;
74626;SDS011;63132;52.268;5.192;2023-02-28T01:35:12;12.07;;;2.27;;
74626;SDS011;63132;52.268;5.192;2023-02-28T01:37:37;8.17;;;2.33;;
74626;SDS011;63132;52.268;5.192;2023-02-28T01:40:03;5.55;;;2.13;;
74626;SDS011;63132;52.268;5.192;2023-02-28T01:42:29;5.32;;;2.08;;
74626;SDS011;63132;52.268;5.192;2023-02-28T01:47:41;4.15;;;2.00;;
74626;SDS011;63132;52.268;5.192;2023-02-28T01:50:09;4.63;;;2.05;;
74626;SDS011;63132;52.268;5.192;2023-02-28T01:52:47;6.13;;;1.92;;
74626;SDS011;63132;52.268;5.192;2023-02-28T01:55:16;7.57;;;2.28;;
74626;SDS011;63132;52.268;5.192;2023-02-28T01:57:48;10.75;;;2.78;;
74626;SDS011;63132;52.268;5.192;2023-02-28T02:00:18;3.42;;;2.10;;
74626;SDS011;63132;52.268;5.192;2023-02-28T02:02:48;5.72;;;2.45;;
74626;SDS011;63132;52.268;5.192;2023-02-28T02:05:20;7.63;;;2.40;;
74626;SDS011;63132;52.268;5.192;2023-02-28T02:07:54;10.48;;;3.33;;
74626;SDS011;63132;52.268;5.192;2023-02-28T02:10:24;6.15;;;2.30;;
74626;SDS011;63132;52.268;5.192;2023-02-28T02:15:42;6.43;;;2.67;;
74626;SDS011;63132;52.268;5.192;2023-02-28T02:20:49;4.63;;;2.45;;
74626;SDS011;63132;52.268;5.192;2023-02-28T02:28:58;7.07;;;3.03;;
74626;SDS011;63132;52.268;5.192;2023-02-28T02:31:46;5.68;;;2.85;;
74626;SDS011;63132;52.268;5.192;2023-02-28T02:37:10;6.85;;;2.47;;
74626;SDS011;63132;52.268;5.192;2023-02-28T02:39:48;4.63;;;2.55;;
74626;SDS011;63132;52.268;5.192;2023-02-28T02:42:25;5.47;;;2.40;;
74626;SDS011;63132;52.268;5.192;2023-02-28T02:45:08;6.63;;;3.20;;
74626;SDS011;63132;52.268;5.192;2023-02-28T02:47:37;7.90;;;2.67;;
74626;SDS011;63132;52.268;5.192;2023-02-28T02:50:05;9.82;;;3.00;;
74626;SDS011;63132;52.268;5.192;2023-02-28T02:52:38;7.72;;;3.22;;
74626;SDS011;63132;52.268;5.192;2023-02-28T02:55:08;8.90;;;3.13;;
74626;SDS011;63132;52.268;5.192;2023-02-28T02:57:38;5.45;;;2.63;;
74626;SDS011;63132;52.268;5.192;2023-02-28T03:00:11;5.68;;;2.72;;
74626;SDS011;63132;52.268;5.192;2023-02-28T03:02:39;8.05;;;3.00;;
74626;SDS011;63132;52.268;5.192;2023-02-28T03:05:12;9.23;;;2.67;;
74626;SDS011;63132;52.268;5.192;2023-02-28T03:07:43;6.40;;;3.05;;
74626;SDS011;63132;52.268;5.192;2023-02-28T03:16:07;7.70;;;3.25;;
74626;SDS011;63132;52.268;5.192;2023-02-28T03:18:43;6.13;;;2.80;;
74626;SDS011;63132;52.268;5.192;2023-02-28T03:24:16;9.30;;;3.65;;
74626;SDS011;63132;52.268;5.192;2023-02-28T03:26:50;9.32;;;3.80;;
74626;SDS011;63132;52.268;5.192;2023-02-28T03:29:34;11.77;;;4.13;;
74626;SDS011;63132;52.268;5.192;2023-02-28T03:32:05;6.65;;;3.47;;
74626;SDS011;63132;52.268;5.192;2023-02-28T03:34:46;6.43;;;2.90;;
74626;SDS011;63132;52.268;5.192;2023-02-28T03:37:18;5.75;;;2.75;;
74626;SDS011;63132;52.268;5.192;2023-02-28T03:39:47;9.75;;;2.92;;
74626;SDS011;63132;52.268;5.192;2023-02-28T03:42:19;6.93;;;3.10;;
74626;SDS011;63132;52.268;5.192;2023-02-28T03:44:52;10.65;;;3.70;;
74626;SDS011;63132;52.268;5.192;2023-02-28T03:47:27;10.32;;;4.35;;
74626;SDS011;63132;52.268;5.192;2023-02-28T03:49:57;6.97;;;3.30;;
74626;SDS011;63132;52.268;5.192;2023-02-28T03:52:30;8.82;;;3.80;;
74626;SDS011;63132;52.268;5.192;2023-02-28T03:55:00;9.60;;;4.38;;
74626;SDS011;63132;52.268;5.192;2023-02-28T03:57:37;7.40;;;3.70;;
74626;SDS011;63132;52.268;5.192;2023-02-28T04:00:10;9.13;;;4.35;;
74626;SDS011;63132;52.268;5.192;2023-02-28T04:02:42;6.55;;;3.83;;
74626;SDS011;63132;52.268;5.192;2023-02-28T04:05:08;8.60;;;3.55;;
74626;SDS011;63132;52.268;5.192;2023-02-28T04:07:33;11.67;;;4.30;;
74626;SDS011;63132;52.268;5.192;2023-02-28T04:09:59;7.40;;;3.72;;
74626;SDS011;63132;52.268;5.192;2023-02-28T04:12:24;7.10;;;3.80;;
74626;SDS011;63132;52.268;5.192;2023-02-28T04:14:50;11.40;;;3.97;;
74626;SDS011;63132;52.268;5.192;2023-02-28T04:17:16;8.48;;;3.70;;
74626;SDS011;63132;52.268;5.192;2023-02-28T04:19:42;10.52;;;4.35;;
74626;SDS011;63132;52.268;5.192;2023-02-28T04:22:08;12.40;;;4.25;;
74626;SDS011;63132;52.268;5.192;2023-02-28T04:24:34;9.18;;;4.32;;
74626;SDS011;63132;52.268;5.192;2023-02-28T04:26:59;8.33;;;4.60;;
74626;SDS011;63132;52.268;5.192;2023-02-28T04:29:26;8.52;;;4.43;;
74626;SDS011;63132;52.268;5.192;2023-02-28T04:31:53;8.13;;;4.70;;
74626;SDS011;63132;52.268;5.192;2023-02-28T04:34:21;13.15;;;4.65;;
74626;SDS011;63132;52.268;5.192;2023-02-28T04:36:47;9.60;;;5.00;;
74626;SDS011;63132;52.268;5.192;2023-02-28T04:39:18;10.73;;;5.70;;
74626;SDS011;63132;52.268;5.192;2023-02-28T04:41:47;10.02;;;5.47;;
74626;SDS011;63132;52.268;5.192;2023-02-28T04:44:13;12.18;;;5.57;;
74626;SDS011;63132;52.268;5.192;2023-02-28T04:49:04;11.68;;;5.82;;
74626;SDS011;63132;52.268;5.192;2023-02-28T04:51:30;12.73;;;5.83;;
74626;SDS011;63132;52.268;5.192;2023-02-28T04:53:56;10.07;;;6.03;;
74626;SDS011;63132;52.268;5.192;2023-02-28T04:58:47;14.05;;;6.55;;
74626;SDS011;63132;52.268;5.192;2023-02-28T05:01:18;12.35;;;7.47;;
74626;SDS011;63132;52.268;5.192;2023-02-28T05:03:54;20.30;;;8.18;;
74626;SDS011;63132;52.268;5.192;2023-02-28T05:06:22;14.05;;;6.97;;
74626;SDS011;63132;52.268;5.192;2023-02-28T05:08:49;12.80;;;8.40;;
74626;SDS011;63132;52.268;5.192;2023-02-28T05:11:20;14.02;;;9.13;;
74626;SDS011;63132;52.268;5.192;2023-02-28T05:13:50;14.68;;;8.20;;
74626;SDS011;63132;52.268;5.192;2023-02-28T05:18:42;17.48;;;9.23;;
74626;SDS011;63132;52.268;5.192;2023-02-28T05:21:25;22.92;;;10.63;;
74626;SDS011;63132;52.268;5.192;2023-02-28T05:23:50;15.93;;;9.35;;
74626;SDS011;63132;52.268;5.192;2023-02-28T05:26:17;21.05;;;10.68;;
74626;SDS011;63132;52.268;5.192;2023-02-28T05:28:42;17.42;;;10.60;;
74626;SDS011;63132;52.268;5.192;2023-02-28T05:31:10;18.55;;;9.27;;
74626;SDS011;63132;52.268;5.192;2023-02-28T05:33:36;18.40;;;9.35;;
74626;SDS011;63132;52.268;5.192;2023-02-28T05:36:01;14.90;;;8.63;;
74626;SDS011;63132;52.268;5.192;2023-02-28T05:38:27;14.65;;;8.85;;
74626;SDS011;63132;52.268;5.192;2023-02-28T05:40:52;18.07;;;10.17;;
74626;SDS011;63132;52.268;5.192;2023-02-28T05:43:18;12.95;;;7.63;;
74626;SDS011;63132;52.268;5.192;2023-02-28T05:45:43;14.18;;;6.13;;
74626;SDS011;63132;52.268;5.192;2023-02-28T05:48:09;13.37;;;6.80;;
74626;SDS011;63132;52.268;5.192;2023-02-28T05:50:34;12.15;;;6.45;;
74626;SDS011;63132;52.268;5.192;2023-02-28T05:53:00;8.45;;;5.20;;
74626;SDS011;63132;52.268;5.192;2023-02-28T05:55:25;9.70;;;5.35;;
74626;SDS011;63132;52.268;5.192;2023-02-28T05:57:51;8.93;;;4.67;;
74626;SDS011;63132;52.268;5.192;2023-02-28T06:00:16;6.78;;;4.30;;
74626;SDS011;63132;52.268;5.192;2023-02-28T06:05:15;10.35;;;4.68;;
74626;SDS011;63132;52.268;5.192;2023-02-28T06:07:42;9.65;;;4.07;;
74626;SDS011;63132;52.268;5.192;2023-02-28T06:12:34;7.72;;;3.63;;
74626;SDS011;63132;52.268;5.192;2023-02-28T06:15:00;6.63;;;4.07;;
74626;SDS011;63132;52.268;5.192;2023-02-28T06:17:25;7.93;;;3.90;;
74626;SDS011;63132;52.268;5.192;2023-02-28T06:19:51;6.87;;;3.90;;
74626;SDS011;63132;52.268;5.192;2023-02-28T06:22:16;10.47;;;4.00;;
74626;SDS011;63132;52.268;5.192;2023-02-28T06:24:42;8.30;;;3.72;;
74626;SDS011;63132;52.268;5.192;2023-02-28T06:27:07;6.53;;;3.77;;
74626;SDS011;63132;52.268;5.192;2023-02-28T06:29:33;9.30;;;4.20;;
74626;SDS011;63132;52.268;5.192;2023-02-28T06:31:59;7.22;;;3.88;;
74626;SDS011;63132;52.268;5.192;2023-02-28T06:34:25;9.32;;;4.88;;
74626;SDS011;63132;52.268;5.192;2023-02-28T06:36:51;6.97;;;3.80;;
74626;SDS011;63132;52.268;5.192;2023-02-28T06:41:42;7.63;;;4.60;;
74626;SDS011;63132;52.268;5.192;2023-02-28T06:44:17;7.18;;;4.35;;
74626;SDS011;63132;52.268;5.192;2023-02-28T06:46:43;8.95;;;4.90;;
74626;SDS011;63132;52.268;5.192;2023-02-28T06:49:10;6.88;;;4.50;;
74626;SDS011;63132;52.268;5.192;2023-02-28T06:51:37;8.45;;;4.53;;
74626;SDS011;63132;52.268;5.192;2023-02-28T06:54:04;9.95;;;5.25;;
74626;SDS011;63132;52.268;5.192;2023-02-28T06:56:30;7.57;;;4.57;;
74626;SDS011;63132;52.268;5.192;2023-02-28T06:58:55;6.77;;;4.60;;
74626;SDS011;63132;52.268;5.192;2023-02-28T07:01:21;9.18;;;4.85;;
74626;SDS011;63132;52.268;5.192;2023-02-28T07:03:48;6.93;;;4.72;;
74626;SDS011;63132;52.268;5.192;2023-02-28T07:06:17;8.15;;;5.45;;
74626;SDS011;63132;52.268;5.192;2023-02-28T07:08:47;9.88;;;5.15;;
74626;SDS011;63132;52.268;5.192;2023-02-28T07:11:13;9.27;;;5.50;;
74626;SDS011;63132;52.268;5.192;2023-02-28T07:13:39;7.63;;;5.20;;
74626;SDS011;63132;52.268;5.192;2023-02-28T07:16:06;10.10;;;5.00;;
74626;SDS011;63132;52.268;5.192;2023-02-28T07:18:33;9.30;;;5.15;;
74626;SDS011;63132;52.268;5.192;2023-02-28T07:21:03;9.80;;;5.47;;
74626;SDS011;63132;52.268;5.192;2023-02-28T07:23:29;8.75;;;5.60;;
74626;SDS011;63132;52.268;5.192;2023-02-28T07:25:55;11.18;;;5.90;;
74626;SDS011;63132;52.268;5.192;2023-02-28T07:28:21;8.40;;;5.77;;
74626;SDS011;63132;52.268;5.192;2023-02-28T07:30:46;10.23;;;5.03;;
74626;SDS011;63132;52.268;5.192;2023-02-28T07:33:14;8.43;;;5.82;;
74626;SDS011;63132;52.268;5.192;2023-02-28T07:35:39;7.72;;;4.82;;
74626;SDS011;63132;52.268;5.192;2023-02-28T07:38:05;13.18;;;5.82;;
74626;SDS011;63132;52.268;5.192;2023-02-28T07:40:32;10.10;;;5.15;;
74626;SDS011;63132;52.268;5.192;2023-02-28T07:42:59;8.48;;;5.32;;
74626;SDS011;63132;52.268;5.192;2023-02-28T07:45:25;9.63;;;5.65;;
74626;SDS011;63132;52.268;5.192;2023-02-28T07:47:51;10.70;;;6.25;;
74626;SDS011;63132;52.268;5.192;2023-02-28T07:50:17;10.25;;;6.50;;
74626;SDS011;63132;52.268;5.192;2023-02-28T07:52:43;9.35;;;5.97;;
74626;SDS011;63132;52.268;5.192;2023-02-28T07:55:09;9.53;;;5.67;;
74626;SDS011;63132;52.268;5.192;2023-02-28T07:57:35;9.77;;;6.65;;
74626;SDS011;63132;52.268;5.192;2023-02-28T08:00:02;7.82;;;5.13;;
74626;SDS011;63132;52.268;5.192;2023-02-28T08:02:31;11.90;;;6.63;;
74626;SDS011;63132;52.268;5.192;2023-02-28T08:04:56;10.23;;;6.33;;
74626;SDS011;63132;52.268;5.192;2023-02-28T08:07:22;12.45;;;6.45;;
74626;SDS011;63132;52.268;5.192;2023-02-28T08:09:47;10.60;;;6.00;;
74626;SDS011;63132;52.268;5.192;2023-02-28T08:12:13;8.32;;;5.40;;
74626;SDS011;63132;52.268;5.192;2023-02-28T08:17:05;13.32;;;5.60;;
74626;SDS011;63132;52.268;5.192;2023-02-28T08:19:30;10.30;;;5.45;;
74626;SDS011;63132;52.268;5.192;2023-02-28T08:21:56;11.23;;;6.57;;
74626;SDS011;63132;52.268;5.192;2023-02-28T08:24:21;13.20;;;5.80;;
74626;SDS011;63132;52.268;5.192;2023-02-28T08:26:47;8.00;;;4.65;;
74626;SDS011;63132;52.268;5.192;2023-02-28T08:29:13;9.15;;;5.63;;
74626;SDS011;63132;52.268;5.192;2023-02-28T08:31:38;7.75;;;5.22;;
74626;SDS011;63132;52.268;5.192;2023-02-28T08:34:07;14.90;;;5.70;;
74626;SDS011;63132;52.268;5.192;2023-02-28T08:36:34;9.27;;;5.15;;
74626;SDS011;63132;52.268;5.192;2023-02-28T08:39:00;11.00;;;6.53;;
74626;SDS011;63132;52.268;5.192;2023-02-28T08:41:26;11.25;;;5.55;;
74626;SDS011;63132;52.268;5.192;2023-02-28T08:43:52;8.73;;;4.90;;
74626;SDS011;63132;52.268;5.192;2023-02-28T08:46:18;10.20;;;5.00;;
74626;SDS011;63132;52.268;5.192;2023-02-28T08:48:44;13.05;;;6.05;;
74626;SDS011;63132;52.268;5.192;2023-02-28T08:51:11;9.77;;;5.10;;
74626;SDS011;63132;52.268;5.192;2023-02-28T08:53:39;10.13;;;5.30;;
74626;SDS011;63132;52.268;5.192;2023-02-28T08:56:09;12.40;;;5.20;;
74626;SDS011;63132;52.268;5.192;2023-02-28T08:58:36;10.23;;;4.95;;
74626;SDS011;63132;52.268;5.192;2023-02-28T09:01:35;7.28;;;4.40;;
74626;SDS011;63132;52.268;5.192;2023-02-28T09:03:54;6.50;;;4.05;;
74626;SDS011;63132;52.268;5.192;2023-02-28T09:06:22;6.18;;;4.10;;
74626;SDS011;63132;52.268;5.192;2023-02-28T09:08:48;9.68;;;5.32;;
74626;SDS011;63132;52.268;5.192;2023-02-28T09:13:40;10.00;;;5.07;;
74626;SDS011;63132;52.268;5.192;2023-02-28T09:16:10;9.15;;;5.22;;
74626;SDS011;63132;52.268;5.192;2023-02-28T09:18:39;9.95;;;4.25;;
74626;SDS011;63132;52.268;5.192;2023-02-28T09:21:09;11.85;;;5.28;;
74626;SDS011;63132;52.268;5.192;2023-02-28T09:23:39;8.95;;;4.55;;
74626;SDS011;63132;52.268;5.192;2023-02-28T09:26:06;6.63;;;4.13;;
74626;SDS011;63132;52.268;5.192;2023-02-28T09:28:33;8.00;;;4.93;;
74626;SDS011;63132;52.268;5.192;2023-02-28T09:30:59;13.15;;;4.60;;
74626;SDS011;63132;52.268;5.192;2023-02-28T09:33:24;9.15;;;4.38;;
74626;SDS011;63132;52.268;5.192;2023-02-28T09:38:22;8.68;;;4.28;;
74626;SDS011;63132;52.268;5.192;2023-02-28T09:40:51;7.82;;;4.18;;
74626;SDS011;63132;52.268;5.192;2023-02-28T09:43:29;7.60;;;3.92;;
74626;SDS011;63132;52.268;5.192;2023-02-28T09:48:29;10.02;;;4.63;;
74626;SDS011;63132;52.268;5.192;2023-02-28T09:51:05;9.07;;;5.82;;
74626;SDS011;63132;52.268;5.192;2023-02-28T10:04:05;8.38;;;4.20;;
74626;SDS011;63132;52.268;5.192;2023-02-28T10:06:50;7.30;;;3.40;;
74626;SDS011;63132;52.268;5.192;2023-02-28T10:09:18;7.93;;;3.50;;
74626;SDS011;63132;52.268;5.192;2023-02-28T10:11:49;7.22;;;3.10;;
74626;SDS011;63132;52.268;5.192;2023-02-28T10:14:24;4.95;;;2.92;;
74626;SDS011;63132;52.268;5.192;2023-02-28T10:17:11;5.13;;;3.08;;
74626;SDS011;63132;52.268;5.192;2023-02-28T10:25:00;3.75;;;2.45;;
74626;SDS011;63132;52.268;5.192;2023-02-28T10:27:30;4.57;;;2.70;;
74626;SDS011;63132;52.268;5.192;2023-02-28T10:29:58;5.63;;;2.53;;
74626;SDS011;63132;52.268;5.192;2023-02-28T10:35:00;5.65;;;2.63;;
74626;SDS011;63132;52.268;5.192;2023-02-28T10:37:38;4.55;;;2.60;;
74626;SDS011;63132;52.268;5.192;2023-02-28T10:40:05;4.28;;;2.40;;
74626;SDS011;63132;52.268;5.192;2023-02-28T10:43:02;4.38;;;2.17;;
74626;SDS011;63132;52.268;5.192;2023-02-28T10:45:37;6.18;;;3.00;;
74626;SDS011;63132;52.268;5.192;2023-02-28T10:48:04;5.15;;;2.40;;
74626;SDS011;63132;52.268;5.192;2023-02-28T10:50:51;4.00;;;2.83;;
74626;SDS011;63132;52.268;5.192;2023-02-28T11:01:34;3.47;;;1.65;;
74626;SDS011;63132;52.268;5.192;2023-02-28T11:04:00;3.63;;;1.80;;
74626;SDS011;63132;52.268;5.192;2023-02-28T11:06:28;3.60;;;1.98;;
74626;SDS011;63132;52.268;5.192;2023-02-28T11:08:56;3.83;;;1.88;;
74626;SDS011;63132;52.268;5.192;2023-02-28T11:11:24;4.15;;;1.85;;
74626;SDS011;63132;52.268;5.192;2023-02-28T11:13:55;3.20;;;1.90;;
74626;SDS011;63132;52.268;5.192;2023-02-28T11:16:34;5.50;;;2.20;;
74626;SDS011;63132;52.268;5.192;2023-02-28T11:19:02;4.20;;;1.92;;
74626;SDS011;63132;52.268;5.192;2023-02-28T11:21:30;2.38;;;1.70;;
74626;SDS011;63132;52.268;5.192;2023-02-28T11:26:38;2.53;;;1.58;;
74626;SDS011;63132;52.268;5.192;2023-02-28T11:31:49;6.97;;;2.22;;
74626;SDS011;63132;52.268;5.192;2023-02-28T11:34:28;4.32;;;2.00;;
74626;SDS011;63132;52.268;5.192;2023-02-28T11:36:54;4.35;;;1.90;;
74626;SDS011;63132;52.268;5.192;2023-02-28T11:39:22;4.65;;;1.90;;
74626;SDS011;63132;52.268;5.192;2023-02-28T11:41:54;4.25;;;1.92;;
74626;SDS011;63132;52.268;5.192;2023-02-28T11:57:57;4.00;;;1.70;;
74626;SDS011;63132;52.268;5.192;2023-02-28T12:03:10;6.60;;;2.25;;
74626;SDS011;63132;52.268;5.192;2023-02-28T12:06:15;7.05;;;2.00;;
74626;SDS011;63132;52.268;5.192;2023-02-28T12:08:47;3.88;;;2.22;;
74626;SDS011;63132;52.268;5.192;2023-02-28T12:16:56;4.20;;;2.35;;
74626;SDS011;63132;52.268;5.192;2023-02-28T12:20:02;3.67;;;2.00;;
74626;SDS011;63132;52.268;5.192;2023-02-28T12:23:25;2.95;;;1.80;;
74626;SDS011;63132;52.268;5.192;2023-02-28T12:28:14;5.57;;;2.10;;
74626;SDS011;63132;52.268;5.192;2023-02-28T12:30:49;4.18;;;2.00;;
74626;SDS011;63132;52.268;5.192;2023-02-28T12:33:22;3.30;;;1.90;;
74626;SDS011;63132;52.268;5.192;2023-02-28T12:35:58;4.05;;;2.05;;
74626;SDS011;63132;52.268;5.192;2023-02-28T12:38:29;4.05;;;2.13;;
74626;SDS011;63132;52.268;5.192;2023-02-28T12:41:02;4.28;;;2.13;;
74626;SDS011;63132;52.268;5.192;2023-02-28T12:43:36;3.58;;;1.73;;
74626;SDS011;63132;52.268;5.192;2023-02-28T12:46:09;4.78;;;1.80;;
74626;SDS011;63132;52.268;5.192;2023-02-28T12:51:03;4.40;;;2.23;;
74626;SDS011;63132;52.268;5.192;2023-02-28T12:53:35;6.45;;;2.10;;
74626;SDS011;63132;52.268;5.192;2023-02-28T12:56:16;3.55;;;2.00;;
74626;SDS011;63132;52.268;5.192;2023-02-28T12:58:45;2.95;;;1.85;;
74626;SDS011;63132;52.268;5.192;2023-02-28T13:09:58;2.50;;;1.90;;
74626;SDS011;63132;52.268;5.192;2023-02-28T13:12:26;4.30;;;2.28;;
74626;SDS011;63132;52.268;5.192;2023-02-28T13:15:01;2.30;;;1.77;;
74626;SDS011;63132;52.268;5.192;2023-02-28T13:17:30;2.90;;;1.55;;
74626;SDS011;63132;52.268;5.192;2023-02-28T13:19:58;3.42;;;1.80;;
74626;SDS011;63132;52.268;5.192;2023-02-28T13:24:50;5.50;;;2.00;;
74626;SDS011;63132;52.268;5.192;2023-02-28T13:27:40;3.17;;;1.83;;
74626;SDS011;63132;52.268;5.192;2023-02-28T13:35:45;3.30;;;1.80;;
74626;SDS011;63132;52.268;5.192;2023-02-28T13:38:21;4.47;;;1.75;;
74626;SDS011;63132;52.268;5.192;2023-02-28T13:40:48;4.53;;;1.67;;
74626;SDS011;63132;52.268;5.192;2023-02-28T13:43:14;4.07;;;1.95;;
74626;SDS011;63132;52.268;5.192;2023-02-28T13:46:11;4.72;;;1.90;;
74626;SDS011;63132;52.268;5.192;2023-02-28T13:48:33;4.28;;;1.98;;
74626;SDS011;63132;52.268;5.192;2023-02-28T13:50:58;4.05;;;1.77;;
74626;SDS011;63132;52.268;5.192;2023-02-28T13:53:28;4.37;;;2.00;;
74626;SDS011;63132;52.268;5.192;2023-02-28T13:56:07;3.30;;;1.80;;
74626;SDS011;63132;52.268;5.192;2023-02-28T14:01:39;2.95;;;1.77;;
74626;SDS011;63132;52.268;5.192;2023-02-28T14:07:21;4.07;;;1.92;;
74626;SDS011;63132;52.268;5.192;2023-02-28T14:09:59;3.03;;;1.60;;
74626;SDS011;63132;52.268;5.192;2023-02-28T14:15:44;4.88;;;1.95;;
74626;SDS011;63132;52.268;5.192;2023-02-28T14:21:02;3.63;;;1.97;;
74626;SDS011;63132;52.268;5.192;2023-02-28T14:26:17;3.10;;;1.83;;
74626;SDS011;63132;52.268;5.192;2023-02-28T14:34:45;4.00;;;1.92;;
74626;SDS011;63132;52.268;5.192;2023-02-28T14:37:20;3.92;;;1.73;;
74626;SDS011;63132;52.268;5.192;2023-02-28T14:39:51;4.65;;;2.00;;
74626;SDS011;63132;52.268;5.192;2023-02-28T14:42:27;2.70;;;1.80;;
74626;SDS011;63132;52.268;5.192;2023-02-28T14:44:58;4.03;;;2.13;;
74626;SDS011;63132;52.268;5.192;2023-02-28T14:47:24;5.03;;;2.03;;
74626;SDS011;63132;52.268;5.192;2023-02-28T14:50:01;3.17;;;1.88;;
74626;SDS011;63132;52.268;5.192;2023-02-28T14:52:29;4.90;;;2.00;;
74626;SDS011;63132;52.268;5.192;2023-02-28T14:55:04;6.65;;;2.00;;
74626;SDS011;63132;52.268;5.192;2023-02-28T14:57:33;2.75;;;1.83;;
74626;SDS011;63132;52.268;5.192;2023-02-28T15:02:40;8.02;;;2.08;;
74626;SDS011;63132;52.268;5.192;2023-02-28T15:07:34;6.25;;;2.67;;
74626;SDS011;63132;52.268;5.192;2023-02-28T15:10:10;4.47;;;2.15;;
74626;SDS011;63132;52.268;5.192;2023-02-28T15:12:36;4.95;;;2.20;;
74626;SDS011;63132;52.268;5.192;2023-02-28T15:15:04;5.07;;;2.00;;
74626;SDS011;63132;52.268;5.192;2023-02-28T15:17:30;4.28;;;2.17;;
74626;SDS011;63132;52.268;5.192;2023-02-28T15:19:56;4.47;;;2.15;;
74626;SDS011;63132;52.268;5.192;2023-02-28T15:22:26;3.63;;;2.10;;
74626;SDS011;63132;52.268;5.192;2023-02-28T15:24:58;3.75;;;2.30;;
74626;SDS011;63132;52.268;5.192;2023-02-28T15:27:27;6.43;;;2.17;;
74626;SDS011;63132;52.268;5.192;2023-02-28T15:29:58;5.50;;;2.40;;
74626;SDS011;63132;52.268;5.192;2023-02-28T15:34:59;4.47;;;2.42;;
74626;SDS011;63132;52.268;5.192;2023-02-28T15:37:48;6.00;;;2.35;;
74626;SDS011;63132;52.268;5.192;2023-02-28T15:40:38;4.97;;;2.60;;
74626;SDS011;63132;52.268;5.192;2023-02-28T15:43:07;6.18;;;3.30;;
74626;SDS011;63132;52.268;5.192;2023-02-28T15:46:00;6.00;;;3.17;;
74626;SDS011;63132;52.268;5.192;2023-02-28T15:49:17;6.45;;;2.25;;
74626;SDS011;63132;52.268;5.192;2023-02-28T15:51:33;4.95;;;2.40;;
74626;SDS011;63132;52.268;5.192;2023-02-28T15:54:02;4.85;;;2.33;;
74626;SDS011;63132;52.268;5.192;2023-02-28T15:56:33;5.82;;;2.35;;
74626;SDS011;63132;52.268;5.192;2023-02-28T15:59:07;4.25;;;2.20;;
74626;SDS011;63132;52.268;5.192;2023-02-28T16:01:42;4.80;;;2.30;;
74626;SDS011;63132;52.268;5.192;2023-02-28T16:04:15;4.97;;;2.42;;
74626;SDS011;63132;52.268;5.192;2023-02-28T16:09:13;5.03;;;2.40;;
74626;SDS011;63132;52.268;5.192;2023-02-28T16:11:41;4.15;;;2.22;;
74626;SDS011;63132;52.268;5.192;2023-02-28T16:14:14;4.22;;;2.28;;
74626;SDS011;63132;52.268;5.192;2023-02-28T16:16:49;5.20;;;2.35;;
74626;SDS011;63132;52.268;5.192;2023-02-28T16:19:19;5.03;;;2.55;;
74626;SDS011;63132;52.268;5.192;2023-02-28T16:21:46;3.92;;;2.33;;
74626;SDS011;63132;52.268;5.192;2023-02-28T16:24:12;7.05;;;2.40;;
74626;SDS011;63132;52.268;5.192;2023-02-28T16:26:38;5.75;;;2.10;;
74626;SDS011;63132;52.268;5.192;2023-02-28T16:29:06;3.80;;;2.20;;
74626;SDS011;63132;52.268;5.192;2023-02-28T16:31:33;3.63;;;2.30;;
74626;SDS011;63132;52.268;5.192;2023-02-28T16:34:01;5.18;;;2.38;;
74626;SDS011;63132;52.268;5.192;2023-02-28T16:36:28;4.88;;;2.55;;
74626;SDS011;63132;52.268;5.192;2023-02-28T16:38:54;4.65;;;2.70;;
74626;SDS011;63132;52.268;5.192;2023-02-28T16:41:21;5.82;;;2.38;;
74626;SDS011;63132;52.268;5.192;2023-02-28T16:43:50;6.60;;;2.30;;
74626;SDS011;63132;52.268;5.192;2023-02-28T16:46:17;4.35;;;2.38;;
74626;SDS011;63132;52.268;5.192;2023-02-28T16:48:44;6.57;;;2.50;;
74626;SDS011;63132;52.268;5.192;2023-02-28T16:51:11;7.63;;;2.63;;
74626;SDS011;63132;52.268;5.192;2023-02-28T16:53:38;4.25;;;2.25;;
74626;SDS011;63132;52.268;5.192;2023-02-28T16:56:04;3.33;;;2.30;;
74626;SDS011;63132;52.268;5.192;2023-02-28T16:58:31;3.47;;;2.28;;
74626;SDS011;63132;52.268;5.192;2023-02-28T17:01:00;5.30;;;2.20;;
74626;SDS011;63132;52.268;5.192;2023-02-28T17:03:27;6.13;;;2.97;;
74626;SDS011;63132;52.268;5.192;2023-02-28T17:05:53;4.53;;;3.00;;
74626;SDS011;63132;52.268;5.192;2023-02-28T17:08:19;4.70;;;2.95;;
74626;SDS011;63132;52.268;5.192;2023-02-28T17:10:44;5.18;;;3.25;;
74626;SDS011;63132;52.268;5.192;2023-02-28T17:13:10;8.48;;;3.17;;
74626;SDS011;63132;52.268;5.192;2023-02-28T17:15:36;5.22;;;3.00;;
74626;SDS011;63132;52.268;5.192;2023-02-28T17:18:02;7.57;;;3.20;;
74626;SDS011;63132;52.268;5.192;2023-02-28T17:20:28;6.10;;;3.70;;
74626;SDS011;63132;52.268;5.192;2023-02-28T17:22:53;5.63;;;3.57;;
74626;SDS011;63132;52.268;5.192;2023-02-28T17:25:19;5.50;;;3.40;;
74626;SDS011;63132;52.268;5.192;2023-02-28T17:27:46;6.78;;;4.38;;
74626;SDS011;63132;52.268;5.192;2023-02-28T17:30:21;8.95;;;4.20;;
74626;SDS011;63132;52.268;5.192;2023-02-28T17:32:49;6.57;;;3.95;;
74626;SDS011;63132;52.268;5.192;2023-02-28T17:35:15;7.67;;;4.50;;